sensor_id;sensor_type;location;lat;lon;timestamp;P1;durP1;ratioP1;P2;durP2;ratioP2
60088;SDS011;45961;53.574;55.878;2022-09-20T00:00:07;4.35;;;3.10;;
60088;SDS011;45961;53.574;55.878;2022-09-20T00:01:16;3.97;;;3.20;;
60088;SDS011;45961;53.574;55.878;2022-09-20T00:02:20;4.25;;;3.40;;
60088;SDS011;45961;53.574;55.878;2022-09-20T00:03:21;4.65;;;3.10;;
60088;SDS011;45961;53.574;55.878;2022-09-20T00:04:22;4.15;;;2.80;;
60088;SDS011;45961;53.574;55.878;2022-09-20T00:05:23;5.45;;;3.22;;
60088;SDS011;45961;53.574;55.878;2022-09-20T00:06:25;4.07;;;3.15;;
60088;SDS011;45961;53.574;55.878;2022-09-20T00:07:28;4.18;;;3.22;;
60088;SDS011;45961;53.574;55.878;2022-09-20T00:08:29;3.85;;;3.13;;
60088;SDS011;45961;53.574;55.878;2022-09-20T00:09:31;5.50;;;3.28;;
60088;SDS011;45961;53.574;55.878;2022-09-20T00:10:32;5.45;;;3.20;;
60088;SDS011;45961;53.574;55.878;2022-09-20T00:11:37;3.42;;;2.97;;
60088;SDS011;45961;53.574;55.878;2022-09-20T00:12:38;5.78;;;3.45;;
60088;SDS011;45961;53.574;55.878;2022-09-20T00:13:39;4.32;;;2.88;;
60088;SDS011;45961;53.574;55.878;2022-09-20T00:14:43;3.53;;;3.10;;
60088;SDS011;45961;53.574;55.878;2022-09-20T00:15:44;4.55;;;3.38;;
60088;SDS011;45961;53.574;55.878;2022-09-20T00:16:45;4.70;;;2.83;;
60088;SDS011;45961;53.574;55.878;2022-09-20T00:17:46;4.05;;;3.42;;
60088;SDS011;45961;53.574;55.878;2022-09-20T00:18:51;4.50;;;3.70;;
60088;SDS011;45961;53.574;55.878;2022-09-20T00:19:53;5.10;;;3.53;;
60088;SDS011;45961;53.574;55.878;2022-09-20T00:20:54;3.65;;;2.95;;
60088;SDS011;45961;53.574;55.878;2022-09-20T00:21:55;4.88;;;3.13;;
60088;SDS011;45961;53.574;55.878;2022-09-20T00:22:56;4.97;;;3.55;;
60088;SDS011;45961;53.574;55.878;2022-09-20T00:23:57;5.32;;;3.13;;
60088;SDS011;45961;53.574;55.878;2022-09-20T00:26:00;4.10;;;2.83;;
60088;SDS011;45961;53.574;55.878;2022-09-20T00:27:02;4.05;;;3.28;;
60088;SDS011;45961;53.574;55.878;2022-09-20T00:29:05;4.85;;;3.22;;
60088;SDS011;45961;53.574;55.878;2022-09-20T00:30:07;5.00;;;3.17;;
60088;SDS011;45961;53.574;55.878;2022-09-20T00:31:12;4.07;;;3.22;;
60088;SDS011;45961;53.574;55.878;2022-09-20T00:32:15;3.92;;;3.60;;
60088;SDS011;45961;53.574;55.878;2022-09-20T00:33:16;4.07;;;3.67;;
60088;SDS011;45961;53.574;55.878;2022-09-20T00:34:17;5.10;;;3.40;;
60088;SDS011;45961;53.574;55.878;2022-09-20T00:35:38;3.58;;;3.28;;
60088;SDS011;45961;53.574;55.878;2022-09-20T00:36:43;4.43;;;3.47;;
60088;SDS011;45961;53.574;55.878;2022-09-20T00:38:47;3.75;;;3.30;;
60088;SDS011;45961;53.574;55.878;2022-09-20T00:39:48;5.57;;;4.25;;
60088;SDS011;45961;53.574;55.878;2022-09-20T00:40:49;4.00;;;3.05;;
60088;SDS011;45961;53.574;55.878;2022-09-20T00:41:50;4.05;;;3.20;;
60088;SDS011;45961;53.574;55.878;2022-09-20T00:42:51;5.28;;;3.55;;
60088;SDS011;45961;53.574;55.878;2022-09-20T00:43:52;4.47;;;3.25;;
60088;SDS011;45961;53.574;55.878;2022-09-20T00:46:00;4.45;;;3.47;;
60088;SDS011;45961;53.574;55.878;2022-09-20T00:47:02;3.53;;;2.88;;
60088;SDS011;45961;53.574;55.878;2022-09-20T00:48:12;5.72;;;3.42;;
60088;SDS011;45961;53.574;55.878;2022-09-20T00:49:26;4.78;;;3.78;;
60088;SDS011;45961;53.574;55.878;2022-09-20T00:50:30;5.60;;;3.42;;
60088;SDS011;45961;53.574;55.878;2022-09-20T00:51:37;7.47;;;3.90;;
60088;SDS011;45961;53.574;55.878;2022-09-20T00:52:43;4.65;;;3.72;;
60088;SDS011;45961;53.574;55.878;2022-09-20T00:53:47;3.88;;;3.28;;
60088;SDS011;45961;53.574;55.878;2022-09-20T00:54:50;5.25;;;3.40;;
60088;SDS011;45961;53.574;55.878;2022-09-20T00:57:01;4.18;;;3.67;;
60088;SDS011;45961;53.574;55.878;2022-09-20T01:01:26;4.38;;;3.10;;
60088;SDS011;45961;53.574;55.878;2022-09-20T01:03:31;5.55;;;3.63;;
60088;SDS011;45961;53.574;55.878;2022-09-20T01:04:35;4.97;;;3.50;;
60088;SDS011;45961;53.574;55.878;2022-09-20T01:05:40;4.65;;;3.65;;
60088;SDS011;45961;53.574;55.878;2022-09-20T01:06:43;4.82;;;3.30;;
60088;SDS011;45961;53.574;55.878;2022-09-20T01:07:46;5.47;;;3.53;;
60088;SDS011;45961;53.574;55.878;2022-09-20T01:08:50;4.00;;;3.60;;
60088;SDS011;45961;53.574;55.878;2022-09-20T01:09:53;4.18;;;3.58;;
60088;SDS011;45961;53.574;55.878;2022-09-20T01:10:55;4.38;;;3.60;;
60088;SDS011;45961;53.574;55.878;2022-09-20T01:11:56;5.05;;;4.20;;
60088;SDS011;45961;53.574;55.878;2022-09-20T01:13:01;4.18;;;3.45;;
60088;SDS011;45961;53.574;55.878;2022-09-20T01:14:06;5.63;;;3.80;;
60088;SDS011;45961;53.574;55.878;2022-09-20T01:15:08;5.53;;;4.20;;
60088;SDS011;45961;53.574;55.878;2022-09-20T01:16:10;4.60;;;3.90;;
60088;SDS011;45961;53.574;55.878;2022-09-20T01:17:14;4.63;;;4.20;;
60088;SDS011;45961;53.574;55.878;2022-09-20T01:18:18;5.43;;;3.88;;
60088;SDS011;45961;53.574;55.878;2022-09-20T01:20:45;4.05;;;3.58;;
60088;SDS011;45961;53.574;55.878;2022-09-20T01:21:47;4.47;;;3.60;;
60088;SDS011;45961;53.574;55.878;2022-09-20T01:28:51;4.07;;;3.60;;
60088;SDS011;45961;53.574;55.878;2022-09-20T01:30:25;5.03;;;3.35;;
60088;SDS011;45961;53.574;55.878;2022-09-20T01:31:35;3.38;;;3.08;;
60088;SDS011;45961;53.574;55.878;2022-09-20T01:35:36;3.63;;;3.33;;
60088;SDS011;45961;53.574;55.878;2022-09-20T01:36:56;5.60;;;3.10;;
60088;SDS011;45961;53.574;55.878;2022-09-20T01:39:50;3.20;;;2.88;;
60088;SDS011;45961;53.574;55.878;2022-09-20T01:41:14;4.03;;;2.78;;
60088;SDS011;45961;53.574;55.878;2022-09-20T01:42:25;4.53;;;3.10;;
60088;SDS011;45961;53.574;55.878;2022-09-20T01:43:33;6.05;;;3.17;;
60088;SDS011;45961;53.574;55.878;2022-09-20T01:45:58;4.75;;;3.00;;
60088;SDS011;45961;53.574;55.878;2022-09-20T01:52:42;3.63;;;3.20;;
60088;SDS011;45961;53.574;55.878;2022-09-20T01:55:07;6.88;;;3.65;;
60088;SDS011;45961;53.574;55.878;2022-09-20T01:56:30;6.72;;;3.60;;
60088;SDS011;45961;53.574;55.878;2022-09-20T02:04:03;5.10;;;3.42;;
60088;SDS011;45961;53.574;55.878;2022-09-20T02:05:20;5.78;;;3.60;;
60088;SDS011;45961;53.574;55.878;2022-09-20T02:17:03;4.38;;;3.22;;
60088;SDS011;45961;53.574;55.878;2022-09-20T02:19:27;4.45;;;3.00;;
60088;SDS011;45961;53.574;55.878;2022-09-20T02:22:25;4.40;;;3.15;;
60088;SDS011;45961;53.574;55.878;2022-09-20T02:23:59;3.63;;;2.75;;
60088;SDS011;45961;53.574;55.878;2022-09-20T02:28:10;5.68;;;3.55;;
60088;SDS011;45961;53.574;55.878;2022-09-20T02:29:20;3.75;;;3.38;;
60088;SDS011;45961;53.574;55.878;2022-09-20T02:35:40;4.75;;;3.50;;
60088;SDS011;45961;53.574;55.878;2022-09-20T02:36:55;7.75;;;3.25;;
60088;SDS011;45961;53.574;55.878;2022-09-20T02:39:15;3.97;;;3.55;;
60088;SDS011;45961;53.574;55.878;2022-09-20T02:46:02;5.78;;;3.30;;
60088;SDS011;45961;53.574;55.878;2022-09-20T02:48:19;4.03;;;3.08;;
60088;SDS011;45961;53.574;55.878;2022-09-20T02:52:37;8.45;;;3.75;;
60088;SDS011;45961;53.574;55.878;2022-09-20T03:00:30;6.00;;;3.55;;
60088;SDS011;45961;53.574;55.878;2022-09-20T03:03:21;5.70;;;3.45;;
60088;SDS011;45961;53.574;55.878;2022-09-20T03:10:24;7.07;;;3.63;;
60088;SDS011;45961;53.574;55.878;2022-09-20T03:14:16;5.25;;;3.70;;
60088;SDS011;45961;53.574;55.878;2022-09-20T03:15:28;4.82;;;3.40;;
60088;SDS011;45961;53.574;55.878;2022-09-20T03:17:58;7.82;;;3.78;;
60088;SDS011;45961;53.574;55.878;2022-09-20T03:19:16;6.70;;;3.47;;
60088;SDS011;45961;53.574;55.878;2022-09-20T03:22:13;6.32;;;3.70;;
60088;SDS011;45961;53.574;55.878;2022-09-20T03:25:56;5.97;;;3.75;;
60088;SDS011;45961;53.574;55.878;2022-09-20T03:44:26;4.75;;;3.17;;
60088;SDS011;45961;53.574;55.878;2022-09-20T03:47:36;4.22;;;2.47;;
60088;SDS011;45961;53.574;55.878;2022-09-20T03:53:22;5.15;;;2.45;;
60088;SDS011;45961;53.574;55.878;2022-09-20T03:57:41;7.88;;;2.72;;
60088;SDS011;45961;53.574;55.878;2022-09-20T03:58:59;3.97;;;2.70;;
60088;SDS011;45961;53.574;55.878;2022-09-20T04:00:34;4.78;;;3.10;;
60088;SDS011;45961;53.574;55.878;2022-09-20T04:07:08;5.72;;;2.50;;
60088;SDS011;45961;53.574;55.878;2022-09-20T04:11:10;4.05;;;2.00;;
60088;SDS011;45961;53.574;55.878;2022-09-20T04:13:35;3.97;;;1.92;;
60088;SDS011;45961;53.574;55.878;2022-09-20T04:17:25;4.40;;;2.17;;
60088;SDS011;45961;53.574;55.878;2022-09-20T04:19:56;4.68;;;2.22;;
60088;SDS011;45961;53.574;55.878;2022-09-20T04:22:27;2.92;;;1.83;;
60088;SDS011;45961;53.574;55.878;2022-09-20T04:25:58;4.05;;;2.38;;
60088;SDS011;45961;53.574;55.878;2022-09-20T04:27:19;4.25;;;2.08;;
60088;SDS011;45961;53.574;55.878;2022-09-20T04:28:24;7.07;;;2.20;;
60088;SDS011;45961;53.574;55.878;2022-09-20T04:29:41;2.25;;;1.70;;
60088;SDS011;45961;53.574;55.878;2022-09-20T04:30:50;6.75;;;2.03;;
60088;SDS011;45961;53.574;55.878;2022-09-20T04:32:02;3.03;;;1.92;;
60088;SDS011;45961;53.574;55.878;2022-09-20T04:33:40;3.20;;;1.65;;
60088;SDS011;45961;53.574;55.878;2022-09-20T04:34:57;3.63;;;1.80;;
60088;SDS011;45961;53.574;55.878;2022-09-20T04:37:37;3.65;;;2.15;;
60088;SDS011;45961;53.574;55.878;2022-09-20T04:38:39;5.50;;;1.90;;
60088;SDS011;45961;53.574;55.878;2022-09-20T04:45:56;6.72;;;2.75;;
60088;SDS011;45961;53.574;55.878;2022-09-20T04:49:00;5.65;;;2.53;;
60088;SDS011;45961;53.574;55.878;2022-09-20T04:53:20;3.67;;;2.33;;
60088;SDS011;45961;53.574;55.878;2022-09-20T04:56:10;4.05;;;2.55;;
60088;SDS011;45961;53.574;55.878;2022-09-20T04:59:05;5.70;;;2.25;;
60088;SDS011;45961;53.574;55.878;2022-09-20T05:01:57;4.82;;;2.40;;
60088;SDS011;45961;53.574;55.878;2022-09-20T05:11:20;8.80;;;3.75;;
60088;SDS011;45961;53.574;55.878;2022-09-20T05:16:47;8.20;;;4.10;;
60088;SDS011;45961;53.574;55.878;2022-09-20T05:18:36;8.68;;;3.65;;
60088;SDS011;45961;53.574;55.878;2022-09-20T05:27:06;3.90;;;2.85;;
60088;SDS011;45961;53.574;55.878;2022-09-20T05:31:10;4.22;;;2.92;;
60088;SDS011;45961;53.574;55.878;2022-09-20T05:39:52;4.88;;;3.80;;
60088;SDS011;45961;53.574;55.878;2022-09-20T05:42:18;6.38;;;2.90;;
60088;SDS011;45961;53.574;55.878;2022-09-20T05:43:26;6.28;;;2.95;;
60088;SDS011;45961;53.574;55.878;2022-09-20T05:47:19;6.80;;;3.08;;
60088;SDS011;45961;53.574;55.878;2022-09-20T05:48:51;4.88;;;2.88;;
60088;SDS011;45961;53.574;55.878;2022-09-20T05:51:29;3.95;;;1.85;;
60088;SDS011;45961;53.574;55.878;2022-09-20T05:52:40;8.57;;;2.10;;
60088;SDS011;45961;53.574;55.878;2022-09-20T05:54:13;5.72;;;1.90;;
60088;SDS011;45961;53.574;55.878;2022-09-20T05:57:15;4.75;;;2.10;;
60088;SDS011;45961;53.574;55.878;2022-09-20T06:08:02;4.88;;;1.67;;
60088;SDS011;45961;53.574;55.878;2022-09-20T06:11:59;3.85;;;1.80;;
60088;SDS011;45961;53.574;55.878;2022-09-20T06:16:01;5.50;;;1.85;;
60088;SDS011;45961;53.574;55.878;2022-09-20T06:18:35;2.28;;;1.52;;
60088;SDS011;45961;53.574;55.878;2022-09-20T06:19:45;4.38;;;1.65;;
60088;SDS011;45961;53.574;55.878;2022-09-20T06:22:36;3.97;;;1.73;;
60088;SDS011;45961;53.574;55.878;2022-09-20T06:23:40;7.07;;;2.15;;
60088;SDS011;45961;53.574;55.878;2022-09-20T06:24:52;3.90;;;1.85;;
60088;SDS011;45961;53.574;55.878;2022-09-20T06:26:08;3.13;;;1.95;;
60088;SDS011;45961;53.574;55.878;2022-09-20T06:27:20;5.25;;;1.70;;
60088;SDS011;45961;53.574;55.878;2022-09-20T06:28:34;4.53;;;1.83;;
60088;SDS011;45961;53.574;55.878;2022-09-20T06:29:40;5.38;;;1.58;;
60088;SDS011;45961;53.574;55.878;2022-09-20T06:30:48;5.43;;;1.70;;
60088;SDS011;45961;53.574;55.878;2022-09-20T06:31:51;5.90;;;2.03;;
60088;SDS011;45961;53.574;55.878;2022-09-20T06:34:04;2.75;;;2.08;;
60088;SDS011;45961;53.574;55.878;2022-09-20T06:35:11;3.92;;;2.10;;
60088;SDS011;45961;53.574;55.878;2022-09-20T06:40:47;3.70;;;1.90;;
60088;SDS011;45961;53.574;55.878;2022-09-20T06:42:19;4.72;;;1.67;;
60088;SDS011;45961;53.574;55.878;2022-09-20T06:43:20;2.63;;;1.50;;
60088;SDS011;45961;53.574;55.878;2022-09-20T06:44:21;3.38;;;1.83;;
60088;SDS011;45961;53.574;55.878;2022-09-20T06:45:23;4.88;;;2.05;;
60088;SDS011;45961;53.574;55.878;2022-09-20T06:46:27;5.75;;;2.20;;
60088;SDS011;45961;53.574;55.878;2022-09-20T06:47:37;5.65;;;1.90;;
60088;SDS011;45961;53.574;55.878;2022-09-20T06:48:38;3.65;;;1.88;;
60088;SDS011;45961;53.574;55.878;2022-09-20T06:49:39;1.92;;;1.70;;
60088;SDS011;45961;53.574;55.878;2022-09-20T06:50:41;2.67;;;1.50;;
60088;SDS011;45961;53.574;55.878;2022-09-20T06:51:45;5.50;;;2.30;;
60088;SDS011;45961;53.574;55.878;2022-09-20T06:52:50;3.53;;;2.05;;
60088;SDS011;45961;53.574;55.878;2022-09-20T06:53:53;3.78;;;1.95;;
60088;SDS011;45961;53.574;55.878;2022-09-20T06:54:56;4.63;;;2.08;;
60088;SDS011;45961;53.574;55.878;2022-09-20T06:55:58;6.80;;;2.75;;
60088;SDS011;45961;53.574;55.878;2022-09-20T06:57:03;6.85;;;2.42;;
60088;SDS011;45961;53.574;55.878;2022-09-20T06:58:07;5.65;;;2.28;;
60088;SDS011;45961;53.574;55.878;2022-09-20T06:59:09;4.85;;;2.05;;
60088;SDS011;45961;53.574;55.878;2022-09-20T07:00:12;4.88;;;2.08;;
60088;SDS011;45961;53.574;55.878;2022-09-20T07:01:15;7.20;;;2.53;;
60088;SDS011;45961;53.574;55.878;2022-09-20T07:02:16;4.95;;;2.40;;
60088;SDS011;45961;53.574;55.878;2022-09-20T07:03:17;4.22;;;2.10;;
60088;SDS011;45961;53.574;55.878;2022-09-20T07:04:19;5.57;;;2.42;;
60088;SDS011;45961;53.574;55.878;2022-09-20T07:05:26;2.85;;;2.17;;
60088;SDS011;45961;53.574;55.878;2022-09-20T07:06:28;6.05;;;2.45;;
60088;SDS011;45961;53.574;55.878;2022-09-20T07:07:29;5.57;;;2.25;;
60088;SDS011;45961;53.574;55.878;2022-09-20T07:08:30;6.90;;;2.67;;
60088;SDS011;45961;53.574;55.878;2022-09-20T07:09:31;6.28;;;2.35;;
60088;SDS011;45961;53.574;55.878;2022-09-20T07:10:34;6.03;;;1.98;;
60088;SDS011;45961;53.574;55.878;2022-09-20T07:11:35;5.32;;;2.05;;
60088;SDS011;45961;53.574;55.878;2022-09-20T07:12:36;6.32;;;2.67;;
60088;SDS011;45961;53.574;55.878;2022-09-20T07:13:40;7.35;;;2.40;;
60088;SDS011;45961;53.574;55.878;2022-09-20T07:14:42;4.65;;;2.70;;
60088;SDS011;45961;53.574;55.878;2022-09-20T07:15:43;5.20;;;2.42;;
60088;SDS011;45961;53.574;55.878;2022-09-20T07:16:44;5.40;;;2.50;;
60088;SDS011;45961;53.574;55.878;2022-09-20T07:17:48;3.50;;;2.35;;
60088;SDS011;45961;53.574;55.878;2022-09-20T07:18:50;4.03;;;2.47;;
60088;SDS011;45961;53.574;55.878;2022-09-20T07:19:52;4.88;;;2.38;;
60088;SDS011;45961;53.574;55.878;2022-09-20T07:20:53;5.40;;;2.22;;
60088;SDS011;45961;53.574;55.878;2022-09-20T07:21:55;10.02;;;2.85;;
60088;SDS011;45961;53.574;55.878;2022-09-20T07:22:56;7.68;;;2.70;;
60088;SDS011;45961;53.574;55.878;2022-09-20T07:23:57;3.72;;;1.70;;
60088;SDS011;45961;53.574;55.878;2022-09-20T07:25:01;6.38;;;2.20;;
60088;SDS011;45961;53.574;55.878;2022-09-20T07:26:02;7.63;;;2.47;;
60088;SDS011;45961;53.574;55.878;2022-09-20T07:27:10;8.77;;;2.60;;
60088;SDS011;45961;53.574;55.878;2022-09-20T07:28:12;8.25;;;2.50;;
60088;SDS011;45961;53.574;55.878;2022-09-20T07:29:13;9.20;;;3.00;;
60088;SDS011;45961;53.574;55.878;2022-09-20T07:30:14;6.10;;;2.80;;
60088;SDS011;45961;53.574;55.878;2022-09-20T07:31:17;7.47;;;2.97;;
60088;SDS011;45961;53.574;55.878;2022-09-20T07:32:19;4.32;;;2.42;;
60088;SDS011;45961;53.574;55.878;2022-09-20T07:33:20;6.22;;;2.58;;
60088;SDS011;45961;53.574;55.878;2022-09-20T07:34:21;6.07;;;2.63;;
60088;SDS011;45961;53.574;55.878;2022-09-20T07:36:23;4.73;;;2.60;;
60088;SDS011;45961;53.574;55.878;2022-09-20T07:37:25;5.20;;;2.47;;
60088;SDS011;45961;53.574;55.878;2022-09-20T07:38:26;5.82;;;2.47;;
60088;SDS011;45961;53.574;55.878;2022-09-20T07:39:28;5.05;;;2.45;;
60088;SDS011;45961;53.574;55.878;2022-09-20T07:40:29;6.43;;;2.17;;
60088;SDS011;45961;53.574;55.878;2022-09-20T07:41:31;5.65;;;2.70;;
60088;SDS011;45961;53.574;55.878;2022-09-20T07:42:32;7.28;;;2.85;;
60088;SDS011;45961;53.574;55.878;2022-09-20T07:43:33;6.45;;;2.50;;
60088;SDS011;45961;53.574;55.878;2022-09-20T07:44:34;9.32;;;2.88;;
60088;SDS011;45961;53.574;55.878;2022-09-20T07:45:37;4.55;;;2.70;;
60088;SDS011;45961;53.574;55.878;2022-09-20T07:46:39;4.88;;;2.20;;
60088;SDS011;45961;53.574;55.878;2022-09-20T07:47:39;6.15;;;2.42;;
60088;SDS011;45961;53.574;55.878;2022-09-20T07:48:41;3.22;;;2.22;;
60088;SDS011;45961;53.574;55.878;2022-09-20T07:49:42;4.10;;;2.22;;
60088;SDS011;45961;53.574;55.878;2022-09-20T07:50:51;4.75;;;2.33;;
60088;SDS011;45961;53.574;55.878;2022-09-20T07:51:55;4.78;;;2.40;;
60088;SDS011;45961;53.574;55.878;2022-09-20T07:52:57;5.32;;;2.70;;
60088;SDS011;45961;53.574;55.878;2022-09-20T07:54:59;3.93;;;2.93;;
60088;SDS011;45961;53.574;55.878;2022-09-20T07:57:15;7.40;;;2.92;;
60088;SDS011;45961;53.574;55.878;2022-09-20T07:58:18;4.95;;;2.88;;
60088;SDS011;45961;53.574;55.878;2022-09-20T07:59:18;4.80;;;2.38;;
60088;SDS011;45961;53.574;55.878;2022-09-20T08:01:21;6.13;;;2.83;;
60088;SDS011;45961;53.574;55.878;2022-09-20T08:02:22;3.92;;;2.78;;
60088;SDS011;45961;53.574;55.878;2022-09-20T08:03:24;6.13;;;2.97;;
60088;SDS011;45961;53.574;55.878;2022-09-20T08:04:26;6.45;;;2.97;;
60088;SDS011;45961;53.574;55.878;2022-09-20T08:05:29;3.75;;;2.70;;
60088;SDS011;45961;53.574;55.878;2022-09-20T08:06:31;6.53;;;2.70;;
60088;SDS011;45961;53.574;55.878;2022-09-20T08:07:36;5.82;;;2.60;;
60088;SDS011;45961;53.574;55.878;2022-09-20T08:08:39;7.20;;;3.22;;
60088;SDS011;45961;53.574;55.878;2022-09-20T08:09:41;6.57;;;2.90;;
60088;SDS011;45961;53.574;55.878;2022-09-20T08:12:12;5.32;;;2.97;;
60088;SDS011;45961;53.574;55.878;2022-09-20T08:13:14;4.65;;;3.05;;
60088;SDS011;45961;53.574;55.878;2022-09-20T08:14:17;5.22;;;2.83;;
60088;SDS011;45961;53.574;55.878;2022-09-20T08:15:19;7.50;;;3.28;;
60088;SDS011;45961;53.574;55.878;2022-09-20T08:17:21;5.05;;;2.72;;
60088;SDS011;45961;53.574;55.878;2022-09-20T08:18:22;5.57;;;2.58;;
60088;SDS011;45961;53.574;55.878;2022-09-20T08:19:27;6.32;;;2.70;;
60088;SDS011;45961;53.574;55.878;2022-09-20T08:20:29;4.43;;;2.90;;
60088;SDS011;45961;53.574;55.878;2022-09-20T08:21:31;6.22;;;2.47;;
60088;SDS011;45961;53.574;55.878;2022-09-20T08:22:33;5.47;;;2.78;;
60088;SDS011;45961;53.574;55.878;2022-09-20T08:24:38;5.50;;;3.20;;
60088;SDS011;45961;53.574;55.878;2022-09-20T08:25:39;8.38;;;2.85;;
60088;SDS011;45961;53.574;55.878;2022-09-20T08:27:02;8.63;;;2.40;;
60088;SDS011;45961;53.574;55.878;2022-09-20T08:28:03;3.65;;;2.35;;
60088;SDS011;45961;53.574;55.878;2022-09-20T08:29:04;5.30;;;2.50;;
60088;SDS011;45961;53.574;55.878;2022-09-20T08:30:06;3.33;;;2.70;;
60088;SDS011;45961;53.574;55.878;2022-09-20T08:31:09;8.35;;;2.67;;
60088;SDS011;45961;53.574;55.878;2022-09-20T08:32:12;7.43;;;2.30;;
60088;SDS011;45961;53.574;55.878;2022-09-20T08:33:16;3.53;;;2.60;;
60088;SDS011;45961;53.574;55.878;2022-09-20T08:34:17;8.35;;;2.55;;
60088;SDS011;45961;53.574;55.878;2022-09-20T08:36:20;5.90;;;2.40;;
60088;SDS011;45961;53.574;55.878;2022-09-20T08:37:23;4.47;;;2.63;;
60088;SDS011;45961;53.574;55.878;2022-09-20T08:38:25;4.20;;;2.05;;
60088;SDS011;45961;53.574;55.878;2022-09-20T08:39:27;2.72;;;2.17;;
60088;SDS011;45961;53.574;55.878;2022-09-20T08:40:31;5.47;;;2.40;;
60088;SDS011;45961;53.574;55.878;2022-09-20T08:41:35;4.32;;;2.30;;
60088;SDS011;45961;53.574;55.878;2022-09-20T08:42:42;6.25;;;2.55;;
60088;SDS011;45961;53.574;55.878;2022-09-20T08:44:58;5.47;;;2.47;;
60088;SDS011;45961;53.574;55.878;2022-09-20T08:46:22;5.43;;;2.58;;
60088;SDS011;45961;53.574;55.878;2022-09-20T08:47:28;4.40;;;2.50;;
60088;SDS011;45961;53.574;55.878;2022-09-20T08:48:34;2.72;;;2.28;;
60088;SDS011;45961;53.574;55.878;2022-09-20T08:49:35;5.15;;;2.13;;
60088;SDS011;45961;53.574;55.878;2022-09-20T08:50:37;8.07;;;2.17;;
60088;SDS011;45961;53.574;55.878;2022-09-20T08:51:40;3.15;;;2.05;;
60088;SDS011;45961;53.574;55.878;2022-09-20T08:52:43;4.68;;;2.22;;
60088;SDS011;45961;53.574;55.878;2022-09-20T08:53:48;4.47;;;1.95;;
60088;SDS011;45961;53.574;55.878;2022-09-20T08:54:52;4.57;;;1.83;;
60088;SDS011;45961;53.574;55.878;2022-09-20T08:55:59;3.03;;;1.95;;
60088;SDS011;45961;53.574;55.878;2022-09-20T08:57:02;2.22;;;2.00;;
60088;SDS011;45961;53.574;55.878;2022-09-20T08:58:08;4.15;;;2.33;;
60088;SDS011;45961;53.574;55.878;2022-09-20T08:59:15;7.95;;;2.00;;
60088;SDS011;45961;53.574;55.878;2022-09-20T09:00:21;3.08;;;1.65;;
60088;SDS011;45961;53.574;55.878;2022-09-20T09:01:23;6.13;;;2.25;;
60088;SDS011;45961;53.574;55.878;2022-09-20T09:02:29;9.57;;;2.17;;
60088;SDS011;45961;53.574;55.878;2022-09-20T09:03:31;4.20;;;1.75;;
60088;SDS011;45961;53.574;55.878;2022-09-20T09:04:34;3.53;;;1.73;;
60088;SDS011;45961;53.574;55.878;2022-09-20T09:05:43;7.85;;;2.50;;
60088;SDS011;45961;53.574;55.878;2022-09-20T09:06:50;7.30;;;1.98;;
60088;SDS011;45961;53.574;55.878;2022-09-20T09:07:53;5.88;;;2.35;;
60088;SDS011;45961;53.574;55.878;2022-09-20T09:08:57;6.95;;;1.85;;
60088;SDS011;45961;53.574;55.878;2022-09-20T09:09:59;10.77;;;2.30;;
60088;SDS011;45961;53.574;55.878;2022-09-20T09:11:04;7.25;;;1.92;;
60088;SDS011;45961;53.574;55.878;2022-09-20T09:12:18;8.95;;;2.40;;
60088;SDS011;45961;53.574;55.878;2022-09-20T09:13:27;6.35;;;1.90;;
60088;SDS011;45961;53.574;55.878;2022-09-20T09:14:33;3.30;;;1.98;;
60088;SDS011;45961;53.574;55.878;2022-09-20T09:15:54;4.78;;;1.77;;
60088;SDS011;45961;53.574;55.878;2022-09-20T09:16:58;1.65;;;1.30;;
60088;SDS011;45961;53.574;55.878;2022-09-20T09:18:00;2.45;;;1.35;;
60088;SDS011;45961;53.574;55.878;2022-09-20T09:20:42;3.47;;;1.50;;
60088;SDS011;45961;53.574;55.878;2022-09-20T09:21:46;3.60;;;1.40;;
60088;SDS011;45961;53.574;55.878;2022-09-20T09:22:48;4.22;;;1.55;;
60088;SDS011;45961;53.574;55.878;2022-09-20T09:24:03;3.22;;;1.50;;
60088;SDS011;45961;53.574;55.878;2022-09-20T09:25:18;5.63;;;1.63;;
60088;SDS011;45961;53.574;55.878;2022-09-20T09:26:34;4.30;;;2.00;;
60088;SDS011;45961;53.574;55.878;2022-09-20T09:27:54;4.15;;;1.65;;
60088;SDS011;45961;53.574;55.878;2022-09-20T09:29:07;4.43;;;1.55;;
60088;SDS011;45961;53.574;55.878;2022-09-20T09:30:17;3.83;;;1.88;;
60088;SDS011;45961;53.574;55.878;2022-09-20T09:31:23;5.47;;;1.67;;
60088;SDS011;45961;53.574;55.878;2022-09-20T09:32:26;4.68;;;1.75;;
60088;SDS011;45961;53.574;55.878;2022-09-20T09:33:32;5.05;;;1.77;;
60088;SDS011;45961;53.574;55.878;2022-09-20T09:34:33;7.35;;;1.90;;
60088;SDS011;45961;53.574;55.878;2022-09-20T09:35:38;6.10;;;2.05;;
60088;SDS011;45961;53.574;55.878;2022-09-20T09:36:45;5.22;;;1.77;;
60088;SDS011;45961;53.574;55.878;2022-09-20T09:37:53;4.68;;;1.60;;
60088;SDS011;45961;53.574;55.878;2022-09-20T09:39:13;3.35;;;1.25;;
60088;SDS011;45961;53.574;55.878;2022-09-20T09:40:17;3.38;;;1.00;;
60088;SDS011;45961;53.574;55.878;2022-09-20T09:41:29;3.63;;;1.20;;
60088;SDS011;45961;53.574;55.878;2022-09-20T09:42:32;2.20;;;1.45;;
60088;SDS011;45961;53.574;55.878;2022-09-20T09:43:34;1.75;;;1.15;;
60088;SDS011;45961;53.574;55.878;2022-09-20T09:44:40;7.32;;;1.33;;
60088;SDS011;45961;53.574;55.878;2022-09-20T09:45:40;4.47;;;1.00;;
60088;SDS011;45961;53.574;55.878;2022-09-20T09:46:42;2.20;;;1.42;;
60088;SDS011;45961;53.574;55.878;2022-09-20T09:47:43;9.77;;;1.40;;
60088;SDS011;45961;53.574;55.878;2022-09-20T09:48:47;1.52;;;1.10;;
60088;SDS011;45961;53.574;55.878;2022-09-20T09:50:20;4.03;;;1.33;;
60088;SDS011;45961;53.574;55.878;2022-09-20T09:51:26;0.93;;;0.80;;
60088;SDS011;45961;53.574;55.878;2022-09-20T09:52:28;2.88;;;1.30;;
60088;SDS011;45961;53.574;55.878;2022-09-20T09:53:32;2.53;;;1.20;;
60088;SDS011;45961;53.574;55.878;2022-09-20T09:54:37;9.88;;;1.98;;
60088;SDS011;45961;53.574;55.878;2022-09-20T09:57:04;5.72;;;1.50;;
60088;SDS011;45961;53.574;55.878;2022-09-20T09:59:13;2.67;;;1.30;;
60088;SDS011;45961;53.574;55.878;2022-09-20T10:00:10;7.05;;;1.30;;
60088;SDS011;45961;53.574;55.878;2022-09-20T10:01:20;4.50;;;1.17;;
60088;SDS011;45961;53.574;55.878;2022-09-20T10:06:44;2.65;;;1.30;;
60088;SDS011;45961;53.574;55.878;2022-09-20T10:07:57;1.85;;;0.93;;
60088;SDS011;45961;53.574;55.878;2022-09-20T10:12:56;3.38;;;1.55;;
60088;SDS011;45961;53.574;55.878;2022-09-20T10:16:09;3.55;;;1.35;;
60088;SDS011;45961;53.574;55.878;2022-09-20T10:20:20;2.80;;;1.23;;
60088;SDS011;45961;53.574;55.878;2022-09-20T10:26:02;5.63;;;1.55;;
60088;SDS011;45961;53.574;55.878;2022-09-20T10:28:45;4.60;;;1.30;;
60088;SDS011;45961;53.574;55.878;2022-09-20T10:30:02;3.97;;;1.38;;
60088;SDS011;45961;53.574;55.878;2022-09-20T10:31:09;3.72;;;1.05;;
60088;SDS011;45961;53.574;55.878;2022-09-20T10:36:09;1.48;;;0.82;;
60088;SDS011;45961;53.574;55.878;2022-09-20T10:37:21;2.08;;;0.90;;
60088;SDS011;45961;53.574;55.878;2022-09-20T10:38:33;1.95;;;0.95;;
60088;SDS011;45961;53.574;55.878;2022-09-20T10:39:40;2.28;;;0.80;;
60088;SDS011;45961;53.574;55.878;2022-09-20T10:43:38;2.45;;;1.10;;
60088;SDS011;45961;53.574;55.878;2022-09-20T10:45:01;3.38;;;1.17;;
60088;SDS011;45961;53.574;55.878;2022-09-20T10:46:15;2.42;;;0.85;;
60088;SDS011;45961;53.574;55.878;2022-09-20T10:47:50;4.80;;;1.45;;
60088;SDS011;45961;53.574;55.878;2022-09-20T10:55:44;2.78;;;1.08;;
60088;SDS011;45961;53.574;55.878;2022-09-20T11:00:40;2.15;;;1.20;;